Eastern Galaxy — DUCH — position and weather

sailwx.info

Track history (hours):
 
Tides and Currents Weather Stations Pressure Air Temp Water Temp Dewpoint Dewpoint Depression Visibility Wind Speed Wind Dir Waves Ship Positions

Eastern Galaxy

Last reported at 2016-Dec-05 11:19 UTC. Time now 2016-Dec-06 16:01 UTC.
Position N 33°54' E 134°56'.

Length 100 m; draft 4.2 m.

Type: Cargo ship. MMSI: 548829000.

Date/timePositionNaut miles runAvg speedWind from/ knotsBaromVisibWave heightAir tempDewpointWater temp
2016-Dec-05 11:19N 33°54' E 134°56'911.8
2016-Dec-05 10:33N 34°03' E 134°57'1212.1
2016-Dec-05 09:33N 34°15' E 134°58'1111.5
2016-Dec-05 08:33N 34°25' E 135°04'1211.7
2016-Dec-05 07:33N 34°33' E 135°15'1010.2
2016-Dec-05 06:33N 34°39' E 135°25'1 0.5
2016-Dec-05 05:26N 34°39' E 135°26'0 0.0
2016-Dec-05 04:32N 34°39' E 135°26'0 0.0
2016-Dec-05 03:32N 34°39' E 135°26'0 0.0
2016-Dec-05 02:32N 34°39' E 135°26'0 0.0
2016-Dec-05 01:32N 34°39' E 135°26'0 0.0
2016-Dec-05 00:32N 34°39' E 135°26'0 0.0
2016-Dec-04 23:32N 34°39' E 135°26'0 0.0
2016-Dec-04 22:33N 34°39' E 135°26'4 4.0
2016-Dec-04 21:33N 34°37' E 135°22'1 1.0
2016-Dec-04 20:22N 34°36' E 135°21'0 0.0
2016-Dec-04 19:28N 34°36' E 135°21'0 0.0
2016-Dec-04 18:28N 34°36' E 135°21'0 0.0
2016-Dec-04 17:28N 34°36' E 135°21'0 0.0
2016-Dec-04 16:04N 34°36' E 135°21'0 0.0
2016-Dec-04 15:28N 34°36' E 135°21'0 0.1
2016-Dec-04 14:28N 34°36' E 135°21'5 5.1
2016-Dec-04 13:33N 34°33' E 135°17'1211.8
2016-Dec-04 12:33N 34°25' E 135°06'1111.1
2016-Dec-04 11:33N 34°16' E 134°59'1211.7
2016-Dec-04 10:33N 34°04' E 134°59'237 9.5
2016-Dec-03 09:33N 35°03' E 139°38'1111.3
2016-Dec-03 08:33N 35°12' E 139°46'1111.3
2016-Dec-03 07:34N 35°23' E 139°42'5 4.6
2016-Dec-03 06:32N 35°28' E 139°42'0 0.0
2016-Dec-03 05:32N 35°28' E 139°42'0 0.0
2016-Dec-03 04:33N 35°28' E 139°42'0 0.0
2016-Dec-03 03:32N 35°28' E 139°42'0 0.0
2016-Dec-03 02:32N 35°28' E 139°42'0 0.0
2016-Dec-03 01:32N 35°28' E 139°42'0 0.0
2016-Dec-03 00:32N 35°28' E 139°42'0 0.0
2016-Dec-02 23:32N 35°28' E 139°42'0 0.0
2016-Dec-02 22:32N 35°28' E 139°42'0 0.0
2016-Dec-02 21:32N 35°28' E 139°42'0 0.0
2016-Dec-02 20:33N 35°28' E 139°42'0 0.0
2016-Dec-02 19:32N 35°28' E 139°42'0 0.0
2016-Dec-02 18:33N 35°28' E 139°42'0 0.0
2016-Dec-02 17:32N 35°28' E 139°42'0 0.0
2016-Dec-02 16:33N 35°28' E 139°42'0 0.0
2016-Dec-02 15:33N 35°28' E 139°42'0 0.0
2016-Dec-02 14:32N 35°28' E 139°42'0 0.0
2016-Dec-02 13:32N 35°28' E 139°42'0 0.0
2016-Dec-02 12:32N 35°28' E 139°42'0 0.0
2016-Dec-02 11:32N 35°28' E 139°42'0 0.0
2016-Dec-02 10:32N 35°28' E 139°42'0 0.0
2016-Dec-02 09:32N 35°28' E 139°42'0 0.0
2016-Dec-02 08:32N 35°28' E 139°42'0 0.0
2016-Dec-02 07:32N 35°28' E 139°42'0 0.0
2016-Dec-02 06:32N 35°28' E 139°42'0 0.0
2016-Dec-02 05:32N 35°28' E 139°42'0 0.0
2016-Dec-02 04:32N 35°28' E 139°42'0 0.0
2016-Dec-02 03:29N 35°28' E 139°42'0 0.0
2016-Dec-02 02:32N 35°28' E 139°42'0 0.0
2016-Dec-02 01:32N 35°28' E 139°42'0 0.0
2016-Dec-02 00:32N 35°28' E 139°42'0 0.0
2016-Dec-01 23:32N 35°28' E 139°42'0 0.0
2016-Dec-01 22:33N 35°28' E 139°42'2 1.9
2016-Dec-01 21:31N 35°26' E 139°43'0 0.1
2016-Dec-01 20:31N 35°26' E 139°43'0 0.0
2016-Dec-01 19:31N 35°26' E 139°43'0 0.0
2016-Dec-01 18:31N 35°26' E 139°43'0 0.0
2016-Dec-01 17:31N 35°26' E 139°43'0 0.0
2016-Dec-01 16:31N 35°26' E 139°43'0 0.0
2016-Dec-01 15:31N 35°26' E 139°43'0 0.0
2016-Dec-01 14:31N 35°26' E 139°43'0 0.1
2016-Dec-01 13:32N 35°26' E 139°43'1 0.7
2016-Dec-01 12:33N 35°26' E 139°44'7 6.6
2016-Dec-01 11:33N 35°19' E 139°44'9 9.0
2016-Dec-01 10:33N 35°11' E 139°46'  
Track history (hours):
 
Tides and Currents Weather Stations Pressure Air Temp Water Temp Dewpoint Dewpoint Depression Visibility Wind Speed Wind Dir Waves Ship Positions

Eastern Galaxy

Last reported at 2016-Dec-05 11:19 UTC. Time now 2016-Dec-06 16:01 UTC.
Position N 33°54' E 134°56'.

Length 100 m; draft 4.2 m.

Type: Cargo ship. MMSI: 548829000.

Date/timePositionNaut miles runAvg speedWind from/ knotsBaromVisibWave heightAir tempDewpointWater temp
2016-Dec-05 11:19N 33°54' E 134°56'911.8
2016-Dec-05 10:33N 34°03' E 134°57'1212.1
2016-Dec-05 09:33N 34°15' E 134°58'1111.5
2016-Dec-05 08:33N 34°25' E 135°04'1211.7
2016-Dec-05 07:33N 34°33' E 135°15'1010.2
2016-Dec-05 06:33N 34°39' E 135°25'1 0.5
2016-Dec-05 05:26N 34°39' E 135°26'0 0.0
2016-Dec-05 04:32N 34°39' E 135°26'0 0.0
2016-Dec-05 03:32N 34°39' E 135°26'0 0.0
2016-Dec-05 02:32N 34°39' E 135°26'0 0.0
2016-Dec-05 01:32N 34°39' E 135°26'0 0.0
2016-Dec-05 00:32N 34°39' E 135°26'0 0.0
2016-Dec-04 23:32N 34°39' E 135°26'0 0.0
2016-Dec-04 22:33N 34°39' E 135°26'4 4.0
2016-Dec-04 21:33N 34°37' E 135°22'1 1.0
2016-Dec-04 20:22N 34°36' E 135°21'0 0.0
2016-Dec-04 19:28N 34°36' E 135°21'0 0.0
2016-Dec-04 18:28N 34°36' E 135°21'0 0.0
2016-Dec-04 17:28N 34°36' E 135°21'0 0.0
2016-Dec-04 16:04N 34°36' E 135°21'0 0.0
2016-Dec-04 15:28N 34°36' E 135°21'0 0.1
2016-Dec-04 14:28N 34°36' E 135°21'5 5.1
2016-Dec-04 13:33N 34°33' E 135°17'1211.8
2016-Dec-04 12:33N 34°25' E 135°06'1111.1
2016-Dec-04 11:33N 34°16' E 134°59'1211.7
2016-Dec-04 10:33N 34°04' E 134°59'237 9.5
2016-Dec-03 09:33N 35°03' E 139°38'1111.3
2016-Dec-03 08:33N 35°12' E 139°46'1111.3
2016-Dec-03 07:34N 35°23' E 139°42'5 4.6
2016-Dec-03 06:32N 35°28' E 139°42'0 0.0
2016-Dec-03 05:32N 35°28' E 139°42'0 0.0
2016-Dec-03 04:33N 35°28' E 139°42'0 0.0
2016-Dec-03 03:32N 35°28' E 139°42'0 0.0
2016-Dec-03 02:32N 35°28' E 139°42'0 0.0
2016-Dec-03 01:32N 35°28' E 139°42'0 0.0
2016-Dec-03 00:32N 35°28' E 139°42'0 0.0
2016-Dec-02 23:32N 35°28' E 139°42'0 0.0
2016-Dec-02 22:32N 35°28' E 139°42'0 0.0
2016-Dec-02 21:32N 35°28' E 139°42'0 0.0
2016-Dec-02 20:33N 35°28' E 139°42'0 0.0
2016-Dec-02 19:32N 35°28' E 139°42'0 0.0
2016-Dec-02 18:33N 35°28' E 139°42'0 0.0
2016-Dec-02 17:32N 35°28' E 139°42'0 0.0
2016-Dec-02 16:33N 35°28' E 139°42'0 0.0
2016-Dec-02 15:33N 35°28' E 139°42'0 0.0
2016-Dec-02 14:32N 35°28' E 139°42'0 0.0
2016-Dec-02 13:32N 35°28' E 139°42'0 0.0
2016-Dec-02 12:32N 35°28' E 139°42'0 0.0
2016-Dec-02 11:32N 35°28' E 139°42'0 0.0
2016-Dec-02 10:32N 35°28' E 139°42'0 0.0
2016-Dec-02 09:32N 35°28' E 139°42'0 0.0
2016-Dec-02 08:32N 35°28' E 139°42'0 0.0
2016-Dec-02 07:32N 35°28' E 139°42'0 0.0
2016-Dec-02 06:32N 35°28' E 139°42'0 0.0
2016-Dec-02 05:32N 35°28' E 139°42'0 0.0
2016-Dec-02 04:32N 35°28' E 139°42'0 0.0
2016-Dec-02 03:29N 35°28' E 139°42'0 0.0
2016-Dec-02 02:32N 35°28' E 139°42'0 0.0
2016-Dec-02 01:32N 35°28' E 139°42'0 0.0
2016-Dec-02 00:32N 35°28' E 139°42'0 0.0
2016-Dec-01 23:32N 35°28' E 139°42'0 0.0
2016-Dec-01 22:33N 35°28' E 139°42'2 1.9
2016-Dec-01 21:31N 35°26' E 139°43'0 0.1
2016-Dec-01 20:31N 35°26' E 139°43'0 0.0
2016-Dec-01 19:31N 35°26' E 139°43'0 0.0
2016-Dec-01 18:31N 35°26' E 139°43'0 0.0
2016-Dec-01 17:31N 35°26' E 139°43'0 0.0
2016-Dec-01 16:31N 35°26' E 139°43'0 0.0
2016-Dec-01 15:31N 35°26' E 139°43'0 0.0
2016-Dec-01 14:31N 35°26' E 139°43'0 0.1
2016-Dec-01 13:32N 35°26' E 139°43'1 0.7
2016-Dec-01 12:33N 35°26' E 139°44'7 6.6
2016-Dec-01 11:33N 35°19' E 139°44'9 9.0
2016-Dec-01 10:33N 35°11' E 139°46'  

Dump ship's entire track history